Time;durP1;ratioP1;P1;durP2;ratioP2;P2;SDS_P1;SDS_P2;PMS_P1;PMS_P2;Temp;Humidity;BMP_temperature;BMP_pressure;BME280_temperature;BME280_humidity;BME280_pressure;Samples;Min_cycle;Max_cycle;Signal;HPM_P1;HPM_P2
2023/05/28 00:02:09;;;;;;;10.63;9.43;;;15.20;99.90;;;;;;5075930;28;20498;-72
2023/05/28 00:04:35;;;;;;;9.77;8.67;;;15.20;99.90;;;;;;5074947;28;20488;-72
2023/05/28 00:07:01;;;;;;;11.03;8.53;;;15.20;99.90;;;;;;5075778;28;20187;-72
2023/05/28 00:09:26;;;;;;;8.70;7.90;;;15.10;99.90;;;;;;5074101;28;20267;-71
2023/05/28 00:11:52;;;;;;;8.70;8.00;;;15.10;99.90;;;;;;5074568;28;20489;-72
2023/05/28 00:14:18;;;;;;;9.57;7.90;;;15.00;99.90;;;;;;5075291;28;20184;-74
2023/05/28 00:16:45;;;;;;;8.40;7.70;;;15.00;99.90;;;;;;5075604;28;20176;-72
2023/05/28 00:19:11;;;;;;;9.70;8.70;;;15.00;99.90;;;;;;5075621;28;20460;-72
2023/05/28 00:21:37;;;;;;;9.10;8.33;;;14.90;99.90;;;;;;5074809;28;20425;-72
2023/05/28 00:24:03;;;;;;;9.20;8.30;;;14.90;99.90;;;;;;5074394;28;20470;-72
2023/05/28 00:26:30;;;;;;;8.50;7.70;;;14.80;99.90;;;;;;5074725;28;20912;-72
2023/05/28 00:28:55;;;;;;;8.93;7.83;;;14.80;99.90;;;;;;5075436;28;20472;-72
2023/05/28 00:31:21;;;;;;;9.13;8.43;;;14.80;99.90;;;;;;5074608;28;20404;-74
2023/05/28 00:33:47;;;;;;;9.87;7.77;;;14.70;99.90;;;;;;5075350;28;20190;-72
2023/05/28 00:36:13;;;;;;;10.97;8.37;;;14.70;99.90;;;;;;5075319;28;20184;-72
2023/05/28 00:38:39;;;;;;;8.53;7.83;;;14.70;99.90;;;;;;5073021;28;21075;-72
2023/05/28 00:41:05;;;;;;;8.70;7.87;;;14.70;99.90;;;;;;5086238;28;20186;-72
2023/05/28 00:43:31;;;;;;;9.03;8.30;;;14.60;99.90;;;;;;5094496;28;20453;-72
2023/05/28 00:46:02;;;;;;;8.73;7.93;;;14.60;99.90;;;;;;5095367;28;20729;-72
2023/05/28 00:48:30;;;;;;;8.60;7.80;;;14.60;99.90;;;;;;5094523;28;20408;-71
2023/05/28 00:50:59;;;;;;;8.10;7.23;;;14.60;99.90;;;;;;5095504;28;20749;-71
2023/05/28 00:53:25;;;;;;;11.60;7.70;;;14.50;99.90;;;;;;5093165;28;20848;-72
2023/05/28 00:55:52;;;;;;;8.10;7.40;;;14.50;99.90;;;;;;5074467;28;20509;-71
2023/05/28 00:58:19;;;;;;;8.07;7.27;;;14.50;99.90;;;;;;5074620;28;20166;-72
2023/05/28 01:00:45;;;;;;;8.27;7.50;;;14.40;99.90;;;;;;5073440;28;20881;-72
2023/05/28 01:03:13;;;;;;;8.50;7.70;;;14.40;99.90;;;;;;5074748;28;20457;-72
2023/05/28 01:05:39;;;;;;;8.33;7.63;;;14.40;99.90;;;;;;5072784;28;20493;-72
2023/05/28 01:08:06;;;;;;;9.00;8.10;;;14.40;99.90;;;;;;5074852;28;20181;-72
2023/05/28 01:10:33;;;;;;;9.60;8.70;;;14.30;99.90;;;;;;5072015;28;20431;-72
2023/05/28 01:13:02;;;;;;;9.83;8.30;;;14.30;99.90;;;;;;5074079;28;20412;-71
2023/05/28 01:15:28;;;;;;;8.60;7.80;;;14.20;99.90;;;;;;5073725;28;20415;-72
2023/05/28 01:17:59;;;;;;;8.63;7.77;;;14.20;99.90;;;;;;5074809;28;20412;-72
2023/05/28 01:20:30;;;;;;;9.07;8.20;;;14.30;99.90;;;;;;5073740;28;20539;-72
2023/05/28 01:23:00;;;;;;;9.70;7.83;;;14.20;99.90;;;;;;5074364;28;20459;-72
2023/05/28 01:25:27;;;;;;;8.80;7.47;;;14.20;99.90;;;;;;5073704;28;20429;-73
2023/05/28 01:27:54;;;;;;;8.00;7.30;;;14.20;99.90;;;;;;5074186;28;20413;-72
2023/05/28 01:30:20;;;;;;;8.73;7.40;;;14.20;99.90;;;;;;5074639;28;20460;-72
2023/05/28 01:32:46;;;;;;;11.70;8.10;;;14.10;99.90;;;;;;5086403;28;20423;-72
2023/05/28 01:35:12;;;;;;;8.77;7.97;;;14.10;99.90;;;;;;5087119;28;20778;-72
2023/05/28 01:37:46;;;;;;;9.37;8.40;;;14.10;99.90;;;;;;5091558;28;20419;-72
2023/05/28 01:40:14;;;;;;;9.10;8.23;;;14.10;99.90;;;;;;5072823;28;20432;-72
2023/05/28 01:42:40;;;;;;;9.90;8.83;;;14.00;99.90;;;;;;5071916;28;20827;-72
2023/05/28 01:45:08;;;;;;;8.63;7.83;;;14.00;99.90;;;;;;5076518;28;20432;-72
2023/05/28 01:47:35;;;;;;;9.43;8.43;;;13.90;99.90;;;;;;5088050;28;20424;-71
2023/05/28 01:50:01;;;;;;;10.33;8.50;;;13.90;99.90;;;;;;5071134;28;20946;-72
2023/05/28 01:52:26;;;;;;;9.57;8.03;;;13.90;99.90;;;;;;5065357;28;20519;-72
2023/05/28 01:54:52;;;;;;;8.50;7.70;;;13.90;99.90;;;;;;5077837;28;20556;-72
2023/05/28 01:57:18;;;;;;;9.20;7.90;;;13.80;99.90;;;;;;5094361;28;20297;-71
2023/05/28 01:59:43;;;;;;;9.07;8.17;;;13.80;99.90;;;;;;5088085;28;20694;-72
2023/05/28 02:02:10;;;;;;;10.47;9.43;;;13.80;99.90;;;;;;5087884;28;20267;-72
2023/05/28 02:04:35;;;;;;;8.13;7.33;;;13.80;99.90;;;;;;5079723;28;20572;-72
2023/05/28 02:07:01;;;;;;;8.13;7.33;;;13.80;99.90;;;;;;5090996;28;20438;-72
2023/05/28 02:09:27;;;;;;;8.83;7.97;;;13.80;99.90;;;;;;5084364;28;20180;-73
2023/05/28 02:11:53;;;;;;;8.13;7.53;;;13.70;99.90;;;;;;5091753;28;20189;-72
2023/05/28 02:14:18;;;;;;;9.63;8.00;;;13.70;99.90;;;;;;5092522;28;20175;-72
2023/05/28 02:16:48;;;;;;;10.07;7.97;;;13.70;99.90;;;;;;5087223;28;20191;-72
2023/05/28 02:19:14;;;;;;;8.70;7.80;;;13.70;99.90;;;;;;5092511;28;20183;-71
2023/05/28 02:21:40;;;;;;;8.77;7.97;;;13.70;99.90;;;;;;5089119;28;20904;-72
2023/05/28 02:24:06;;;;;;;9.30;7.37;;;13.70;99.90;;;;;;5091272;28;20490;-72
2023/05/28 02:26:32;;;;;;;9.80;8.77;;;13.70;99.90;;;;;;5090186;28;20652;-72
2023/05/28 02:28:58;;;;;;;11.03;8.20;;;13.60;99.90;;;;;;5093342;28;20921;-71
2023/05/28 02:31:23;;;;;;;13.30;8.43;;;13.60;99.90;;;;;;5064995;28;20518;-72
2023/05/28 02:33:49;;;;;;;8.67;7.90;;;13.60;99.90;;;;;;5071996;28;20188;-71
2023/05/28 02:36:15;;;;;;;10.27;8.20;;;13.60;99.90;;;;;;5072731;28;20423;-71
2023/05/28 02:38:42;;;;;;;8.37;7.50;;;13.60;99.90;;;;;;5071214;28;20209;-72
2023/05/28 02:41:08;;;;;;;9.23;8.30;;;13.60;99.90;;;;;;5072164;28;20190;-72
2023/05/28 02:43:34;;;;;;;8.73;7.90;;;13.60;99.90;;;;;;5078918;28;20468;-72
2023/05/28 02:46:00;;;;;;;8.73;7.80;;;13.60;99.90;;;;;;5092037;28;20925;-72
2023/05/28 02:48:26;;;;;;;8.53;7.33;;;13.50;99.90;;;;;;5078893;28;20192;-72
2023/05/28 02:50:52;;;;;;;8.83;7.20;;;13.50;99.90;;;;;;5083461;28;20427;-72
2023/05/28 02:53:21;;;;;;;10.40;8.20;;;13.40;99.90;;;;;;5086813;28;20930;-72
2023/05/28 02:55:47;;;;;;;10.60;7.90;;;13.40;99.90;;;;;;5090731;28;20795;-72
2023/05/28 02:58:14;;;;;;;11.17;8.00;;;13.30;99.90;;;;;;5052232;28;20428;-72
2023/05/28 03:00:40;;;;;;;8.67;7.70;;;13.30;99.90;;;;;;5071081;28;20475;-72
2023/05/28 03:03:06;;;;;;;9.93;8.40;;;13.30;99.90;;;;;;5071346;28;20887;-72
2023/05/28 03:05:32;;;;;;;9.00;7.57;;;13.30;99.90;;;;;;5070228;28;20477;-73
2023/05/28 03:07:59;;;;;;;8.70;7.67;;;13.20;99.90;;;;;;5079389;28;20497;-72
2023/05/28 03:10:25;;;;;;;10.00;8.17;;;13.20;99.90;;;;;;5092381;28;20992;-72
2023/05/28 03:12:50;;;;;;;9.57;8.27;;;13.20;99.90;;;;;;5087929;28;20441;-72
2023/05/28 03:15:16;;;;;;;8.73;7.93;;;13.20;99.90;;;;;;5092710;28;20398;-72
2023/05/28 03:17:42;;;;;;;9.77;8.77;;;13.00;99.90;;;;;;5060424;28;20191;-72
2023/05/28 03:20:10;;;;;;;9.47;8.20;;;12.90;99.90;;;;;;5074755;28;20663;-72
2023/05/28 03:22:39;;;;;;;9.07;8.17;;;13.00;99.90;;;;;;5084983;28;20176;-72
2023/05/28 03:25:05;;;;;;;8.93;8.10;;;13.00;99.90;;;;;;5090897;28;20425;-72
2023/05/28 03:27:32;;;;;;;8.83;7.93;;;13.00;99.90;;;;;;5087951;28;20458;-73
2023/05/28 03:29:58;;;;;;;13.83;8.00;;;13.00;99.90;;;;;;5091015;28;20441;-72
2023/05/28 03:32:24;;;;;;;10.30;8.10;;;13.00;99.90;;;;;;5089868;28;20460;-72
2023/05/28 03:34:49;;;;;;;9.77;8.60;;;13.10;99.90;;;;;;5090119;28;20418;-72
2023/05/28 03:37:15;;;;;;;11.80;9.30;;;13.00;99.90;;;;;;5091071;28;20824;-71
2023/05/28 03:39:41;;;;;;;9.53;8.43;;;13.00;99.90;;;;;;5069947;28;20195;-72
2023/05/28 03:42:07;;;;;;;9.50;8.60;;;13.00;99.90;;;;;;5068279;28;20433;-72
2023/05/28 03:44:34;;;;;;;8.80;7.97;;;13.00;99.90;;;;;;5059267;28;20464;-72
2023/05/28 03:47:00;;;;;;;9.47;8.57;;;13.00;99.90;;;;;;5057395;28;20269;-71
2023/05/28 03:49:26;;;;;;;9.13;8.33;;;13.00;99.90;;;;;;5072027;28;20410;-72
2023/05/28 03:51:52;;;;;;;11.93;8.80;;;13.00;99.90;;;;;;5071141;28;20497;-72
2023/05/28 03:54:18;;;;;;;8.60;7.80;;;13.00;99.90;;;;;;5071981;28;20882;-72
2023/05/28 03:56:44;;;;;;;9.87;9.00;;;13.00;99.90;;;;;;5071252;28;20210;-72
2023/05/28 03:59:09;;;;;;;9.20;8.30;;;13.00;99.90;;;;;;5071928;28;20410;-72
2023/05/28 04:01:36;;;;;;;9.10;8.30;;;13.00;99.90;;;;;;5069780;28;20314;-73
2023/05/28 04:04:03;;;;;;;9.10;8.20;;;13.00;99.90;;;;;;5070729;28;20277;-72
2023/05/28 04:06:31;;;;;;;8.87;8.07;;;13.00;99.90;;;;;;5071859;28;20771;-73
2023/05/28 04:08:57;;;;;;;8.33;7.53;;;13.00;99.90;;;;;;5070578;28;20525;-71
2023/05/28 04:11:24;;;;;;;9.53;8.57;;;13.00;99.90;;;;;;5071842;28;20494;-70
2023/05/28 04:13:53;;;;;;;8.27;7.57;;;13.00;99.90;;;;;;5069048;28;20356;-74
2023/05/28 04:16:22;;;;;;;11.17;8.70;;;13.00;99.90;;;;;;5059517;28;20447;-72
2023/05/28 04:18:49;;;;;;;9.60;8.70;;;13.00;99.90;;;;;;5069110;28;20432;-72
2023/05/28 04:21:15;;;;;;;11.10;9.00;;;13.00;99.90;;;;;;5077011;28;20431;-72
2023/05/28 04:23:40;;;;;;;9.20;8.30;;;13.10;99.90;;;;;;5081658;28;20459;-73
2023/05/28 04:26:06;;;;;;;10.73;9.60;;;13.10;99.90;;;;;;5085001;28;20796;-72
2023/05/28 04:28:33;;;;;;;10.87;9.17;;;13.10;99.90;;;;;;5091450;28;20176;-74
2023/05/28 04:31:02;;;;;;;11.47;9.50;;;13.20;99.90;;;;;;5091857;28;20171;-72
2023/05/28 04:33:31;;;;;;;9.20;8.37;;;13.20;99.90;;;;;;5091811;28;20428;-72
2023/05/28 04:35:58;;;;;;;10.73;9.67;;;13.20;99.90;;;;;;5091391;28;20506;-72
2023/05/28 04:38:24;;;;;;;10.80;9.87;;;13.30;99.90;;;;;;5089169;28;20470;-72
2023/05/28 04:40:50;;;;;;;10.13;9.13;;;13.40;99.90;;;;;;5094533;28;20760;-73
2023/05/28 04:43:16;;;;;;;10.17;9.17;;;13.40;99.90;;;;;;5094064;28;20489;-72
2023/05/28 04:45:43;;;;;;;12.20;9.47;;;13.40;99.90;;;;;;5094585;28;20410;-72
2023/05/28 04:48:10;;;;;;;11.57;9.50;;;13.50;99.90;;;;;;5092746;28;20824;-72
2023/05/28 04:50:36;;;;;;;10.47;9.37;;;13.60;99.90;;;;;;5075795;28;20473;-74
2023/05/28 04:53:02;;;;;;;9.87;8.97;;;13.60;99.90;;;;;;5075066;28;20419;-72
2023/05/28 04:55:28;;;;;;;12.50;9.53;;;13.70;99.90;;;;;;5083505;28;20256;-72
2023/05/28 04:57:53;;;;;;;12.00;10.43;;;13.80;99.90;;;;;;5073653;28;20192;-72
2023/05/28 05:00:20;;;;;;;10.20;9.30;;;13.80;99.90;;;;;;5078912;28;20635;-72
2023/05/28 05:02:46;;;;;;;10.03;9.13;;;13.80;99.90;;;;;;5094220;28;20806;-72
2023/05/28 05:05:12;;;;;;;13.23;10.00;;;13.90;99.90;;;;;;5094703;28;20402;-72
2023/05/28 05:07:38;;;;;;;11.57;9.53;;;13.90;99.90;;;;;;5088257;28;20234;-74
2023/05/28 05:10:11;;;;;;;9.40;8.57;;;13.90;99.90;;;;;;5079339;28;20782;-73
2023/05/28 05:12:38;;;;;;;10.90;8.67;;;14.00;99.90;;;;;;5094243;28;20765;-74
2023/05/28 05:15:08;;;;;;;10.33;9.23;;;14.00;99.90;;;;;;5094748;28;20401;-72
2023/05/28 05:17:34;;;;;;;9.23;8.40;;;14.10;99.90;;;;;;5094768;28;20408;-72
2023/05/28 05:20:01;;;;;;;8.70;7.90;;;14.10;99.90;;;;;;5081426;28;20494;-72
2023/05/28 05:22:27;;;;;;;10.40;9.10;;;14.10;99.90;;;;;;5084440;28;20902;-72
2023/05/28 05:24:53;;;;;;;9.43;8.50;;;14.20;99.90;;;;;;5094208;28;20416;-72
2023/05/28 05:27:18;;;;;;;9.77;8.47;;;14.30;99.90;;;;;;5094594;28;20525;-72
2023/05/28 05:29:44;;;;;;;9.27;8.47;;;14.40;99.90;;;;;;5093733;28;20261;-72
2023/05/28 05:32:10;;;;;;;12.40;9.10;;;14.40;99.90;;;;;;5061681;28;20190;-73
2023/05/28 05:34:36;;;;;;;10.10;9.10;;;14.40;99.90;;;;;;5092860;28;20239;-75
2023/05/28 05:37:02;;;;;;;9.87;8.97;;;14.50;99.90;;;;;;5093839;28;20511;-72
2023/05/28 05:39:28;;;;;;;9.60;8.63;;;14.50;99.90;;;;;;5093046;28;20449;-72
2023/05/28 05:41:54;;;;;;;9.07;8.27;;;14.60;99.90;;;;;;5080360;28;20427;-72
2023/05/28 05:44:20;;;;;;;11.37;8.77;;;14.70;99.90;;;;;;5091717;28;20560;-72
2023/05/28 05:46:46;;;;;;;9.17;8.23;;;14.70;99.90;;;;;;5093102;28;20410;-72
2023/05/28 05:49:13;;;;;;;8.93;7.30;;;14.70;99.90;;;;;;5088174;28;20501;-72
2023/05/28 05:51:39;;;;;;;9.57;8.33;;;14.80;99.90;;;;;;5086336;28;20431;-74
2023/05/28 05:54:05;;;;;;;9.13;8.23;;;14.80;99.90;;;;;;5093883;28;20884;-72
2023/05/28 05:56:31;;;;;;;9.97;8.40;;;14.80;99.90;;;;;;5094446;28;20265;-72
2023/05/28 05:58:58;;;;;;;9.60;8.60;;;14.80;99.90;;;;;;5090753;28;20617;-72
2023/05/28 06:01:24;;;;;;;13.10;9.10;;;14.90;99.90;;;;;;5072167;28;20423;-72
2023/05/28 06:03:50;;;;;;;9.97;8.47;;;15.00;99.90;;;;;;5093034;28;20544;-72
2023/05/28 06:06:16;;;;;;;10.03;9.00;;;15.00;99.90;;;;;;5091922;28;20537;-72
2023/05/28 06:08:42;;;;;;;13.93;9.30;;;15.10;99.90;;;;;;5092733;28;20679;-73
2023/05/28 06:11:09;;;;;;;9.50;8.40;;;15.20;99.90;;;;;;5085588;28;20423;-72
2023/05/28 06:13:36;;;;;;;9.70;8.80;;;15.30;99.90;;;;;;5078625;28;20446;-72
2023/05/28 06:16:04;;;;;;;11.17;8.40;;;15.40;99.90;;;;;;5089249;28;20437;-72
2023/05/28 06:18:30;;;;;;;9.27;8.47;;;15.40;99.90;;;;;;5089965;28;20956;-73
2023/05/28 06:20:56;;;;;;;9.97;8.70;;;15.40;99.90;;;;;;5058845;28;20828;-72
2023/05/28 06:23:22;;;;;;;10.13;8.97;;;15.40;99.90;;;;;;5075422;28;20468;-72
2023/05/28 06:25:48;;;;;;;11.23;9.97;;;15.50;99.90;;;;;;5091211;28;20928;-72
2023/05/28 06:28:15;;;;;;;12.70;8.93;;;15.60;99.90;;;;;;5092298;28;20253;-72
2023/05/28 06:30:41;;;;;;;11.13;10.13;;;15.70;99.90;;;;;;5078482;28;20833;-73
2023/05/28 06:33:07;;;;;;;10.70;9.53;;;15.70;99.90;;;;;;5060987;28;20443;-73
2023/05/28 06:35:33;;;;;;;9.60;8.70;;;15.80;99.90;;;;;;5063886;28;20431;-72
2023/05/28 06:37:59;;;;;;;9.90;8.30;;;15.90;99.90;;;;;;5061592;28;20459;-72
2023/05/28 06:40:25;;;;;;;9.90;8.90;;;16.00;99.90;;;;;;5072810;28;20776;-72
2023/05/28 06:42:51;;;;;;;12.40;8.50;;;16.10;99.90;;;;;;5088890;28;20662;-72
2023/05/28 06:45:18;;;;;;;11.03;8.00;;;16.20;99.90;;;;;;5093034;28;20519;-72
2023/05/28 06:47:45;;;;;;;8.33;7.57;;;16.30;99.90;;;;;;5085970;28;20458;-74
2023/05/28 06:50:11;;;;;;;11.23;7.57;;;16.50;99.90;;;;;;5051282;28;20412;-73
2023/05/28 06:52:37;;;;;;;10.20;7.90;;;16.60;99.90;;;;;;5068067;28;20411;-72
2023/05/28 06:55:05;;;;;;;8.73;8.00;;;16.60;99.90;;;;;;5065298;28;20800;-72
2023/05/28 06:57:33;;;;;;;8.77;7.87;;;16.80;99.90;;;;;;5065118;28;20490;-73
2023/05/28 06:59:58;;;;;;;8.33;7.60;;;16.90;99.90;;;;;;5098758;28;20482;-72
2023/05/28 07:02:25;;;;;;;9.10;8.20;;;16.90;99.90;;;;;;5071015;28;20419;-72
2023/05/28 07:04:51;;;;;;;9.40;8.60;;;16.80;99.90;;;;;;5071194;28;20524;-72
2023/05/28 07:07:17;;;;;;;12.17;8.60;;;16.90;99.90;;;;;;5071323;28;20439;-73
2023/05/28 07:09:45;;;;;;;9.53;8.60;;;16.90;99.90;;;;;;5070610;28;20347;-74
2023/05/28 07:12:11;;;;;;;10.07;9.17;;;17.00;99.90;;;;;;5062739;28;20434;-70
2023/05/28 07:14:36;;;;;;;9.63;8.73;;;17.10;99.90;;;;;;5059945;28;20419;-69
2023/05/28 07:17:02;;;;;;;9.07;8.20;;;17.30;99.90;;;;;;5072590;28;20174;-70
2023/05/28 07:19:28;;;;;;;9.83;8.83;;;17.40;99.90;;;;;;5072639;28;20754;-70
2023/05/28 07:21:54;;;;;;;13.30;11.67;;;17.40;99.90;;;;;;5072175;28;20271;-70
2023/05/28 07:24:19;;;;;;;22.03;17.07;;;17.30;99.90;;;;;;5072351;28;20249;-69
2023/05/28 07:26:45;;;;;;;8.83;8.03;;;17.50;99.90;;;;;;5071992;28;20185;-70
2023/05/28 07:29:14;;;;;;;8.33;7.53;;;17.40;99.90;;;;;;5072782;28;20192;-69
2023/05/28 07:31:40;;;;;;;7.60;7.00;;;17.40;99.90;;;;;;5072887;28;20175;-71
2023/05/28 07:34:06;;;;;;;9.43;8.63;;;17.40;99.90;;;;;;5071772;28;20483;-75
2023/05/28 07:36:31;;;;;;;7.00;6.40;;;17.50;99.90;;;;;;5072769;28;20192;-70
2023/05/28 07:38:57;;;;;;;7.73;6.90;;;17.50;99.90;;;;;;5063026;28;20467;-70
2023/05/28 07:41:23;;;;;;;7.43;6.37;;;17.60;99.90;;;;;;5063537;28;20192;-69
2023/05/28 07:43:49;;;;;;;8.33;6.33;;;17.70;99.90;;;;;;5073410;28;20197;-71
2023/05/28 07:46:16;;;;;;;7.47;6.77;;;18.00;99.90;;;;;;5062478;28;20177;-70
2023/05/28 07:48:43;;;;;;;11.33;6.50;;;18.10;98.90;;;;;;5071969;28;20438;-71
2023/05/28 07:51:10;;;;;;;6.57;5.97;;;18.20;97.90;;;;;;5072294;28;20465;-70
2023/05/28 07:53:40;;;;;;;7.00;6.10;;;18.30;97.80;;;;;;5072070;28;20431;-70
2023/05/28 07:56:06;;;;;;;7.20;6.50;;;18.40;97.80;;;;;;5070746;28;20427;-72
2023/05/28 07:58:32;;;;;;;13.13;11.00;;;18.60;98.00;;;;;;5058612;28;20431;-74
2023/05/28 08:00:58;;;;;;;10.45;7.20;;;18.80;98.20;;;;;;5071075;28;20767;-72
2023/05/28 08:03:27;;;;;;;7.43;6.73;;;19.00;97.90;;;;;;5072309;28;20212;-73
2023/05/28 08:05:53;;;;;;;6.83;6.23;;;19.20;97.10;;;;;;5072021;28;20687;-72
2023/05/28 08:08:19;;;;;;;7.20;6.50;;;19.40;97.10;;;;;;5071877;28;20445;-70
2023/05/28 08:10:45;;;;;;;6.50;5.90;;;19.60;96.50;;;;;;5071943;28;20435;-71
2023/05/28 08:13:11;;;;;;;6.63;6.03;;;19.60;95.60;;;;;;5076232;28;20173;-70
2023/05/28 08:15:37;;;;;;;6.90;5.70;;;19.50;95.80;;;;;;5075899;28;20246;-70
2023/05/28 08:18:02;;;;;;;7.00;6.47;;;19.70;96.90;;;;;;5055241;28;20452;-70
2023/05/28 08:20:29;;;;;;;7.30;6.70;;;19.90;97.30;;;;;;5072971;28;20187;-71
2023/05/28 08:22:55;;;;;;;8.60;6.43;;;20.10;97.00;;;;;;5075228;28;20201;-70
2023/05/28 08:25:21;;;;;;;9.33;6.50;;;20.10;94.50;;;;;;5075991;28;20395;-70
2023/05/28 08:27:46;;;;;;;7.20;6.57;;;20.20;97.60;;;;;;5075140;28;20923;-74
2023/05/28 08:30:13;;;;;;;7.63;6.90;;;20.40;95.30;;;;;;5075812;28;20176;-70
2023/05/28 08:32:38;;;;;;;8.13;6.53;;;20.40;93.50;;;;;;5073322;28;20173;-71
2023/05/28 08:35:04;;;;;;;7.07;6.33;;;20.60;94.40;;;;;;5074875;28;20913;-70
2023/05/28 08:37:30;;;;;;;8.40;7.70;;;20.80;93.80;;;;;;5075565;28;20243;-70
2023/05/28 08:39:56;;;;;;;9.53;8.63;;;20.90;93.90;;;;;;5060209;28;20460;-71
2023/05/28 08:42:22;;;;;;;10.23;9.10;;;21.10;92.80;;;;;;5074040;28;20200;-71
2023/05/28 08:44:47;;;;;;;186.23;130.57;;;21.30;93.40;;;;;;5074885;28;20241;-71
2023/05/28 08:47:14;;;;;;;69.40;59.63;;;21.40;90.80;;;;;;5075506;28;20177;-70
2023/05/28 08:49:50;;;;;;;11.70;9.43;;;21.30;87.00;;;;;;5075345;28;20226;-70
2023/05/28 08:52:19;;;;;;;7.23;6.57;;;21.40;87.50;;;;;;5075441;28;20395;-70
2023/05/28 08:54:46;;;;;;;7.87;7.17;;;21.60;89.40;;;;;;5075379;28;20771;-71
2023/05/28 08:57:13;;;;;;;7.83;6.23;;;21.70;89.80;;;;;;5076555;28;20876;-71
2023/05/28 08:59:39;;;;;;;6.50;5.90;;;21.80;88.50;;;;;;5072094;28;20412;-71
2023/05/28 09:02:06;;;;;;;7.03;6.27;;;21.90;85.60;;;;;;5074690;28;20400;-71
2023/05/28 09:04:31;;;;;;;64.90;46.77;;;22.00;86.50;;;;;;5086053;28;20468;-71
2023/05/28 09:06:59;;;;;;;42.40;35.90;;;22.10;85.40;;;;;;5090523;28;20415;-71
2023/05/28 09:09:26;;;;;;;8.10;7.27;;;22.20;84.30;;;;;;5087702;28;20430;-71
2023/05/28 09:11:58;;;;;;;7.90;7.10;;;22.20;84.50;;;;;;5076996;28;20729;-71
2023/05/28 09:14:25;;;;;;;6.73;6.00;;;22.20;86.30;;;;;;5082143;28;20426;-71
2023/05/28 09:16:50;;;;;;;6.53;6.03;;;22.30;84.20;;;;;;5073070;28;20957;-71
2023/05/28 09:19:17;;;;;;;6.20;5.60;;;22.40;84.30;;;;;;5087209;28;20438;-71
2023/05/28 09:21:57;;;;;;;5.50;5.00;;;22.60;85.20;;;;;;5094662;28;20172;-71
2023/05/28 09:24:26;;;;;;;5.97;5.47;;;22.70;83.90;;;;;;5087081;28;20969;-71
2023/05/28 09:26:55;;;;;;;6.03;5.43;;;22.80;83.90;;;;;;5072701;28;20824;-71
2023/05/28 09:29:23;;;;;;;5.67;5.17;;;22.90;80.10;;;;;;5074473;28;20929;-71
2023/05/28 09:32:01;;;;;;;6.70;4.70;;;22.70;75.60;;;;;;5089575;28;20403;-71
2023/05/28 09:34:28;;;;;;;6.17;5.67;;;22.60;79.00;;;;;;5085182;28;20836;-71
2023/05/28 09:37:01;;;;;;;5.50;5.00;;;22.70;80.90;;;;;;5073925;28;20403;-71
2023/05/28 09:39:29;;;;;;;5.73;5.23;;;22.90;78.90;;;;;;5085880;28;20454;-70
2023/05/28 09:42:03;;;;;;;5.30;4.90;;;22.90;79.20;;;;;;5081607;28;20453;-71
2023/05/28 09:44:36;;;;;;;5.77;5.27;;;23.10;81.20;;;;;;5074570;28;20446;-70
2023/05/28 09:47:16;;;;;;;6.00;5.50;;;23.20;79.60;;;;;;5068821;28;20427;-71
2023/05/28 09:49:49;;;;;;;6.23;5.60;;;23.40;80.00;;;;;;5074357;28;20406;-71
2023/05/28 09:52:19;;;;;;;39.73;29.03;;;23.60;79.40;;;;;;5073766;28;20752;-71
2023/05/28 09:54:53;;;;;;;193.07;154.43;;;23.70;78.80;;;;;;5075555;28;20750;-70
2023/05/28 09:57:30;;;;;;;15.17;13.60;;;23.80;78.30;;;;;;5073599;28;20391;-68
2023/05/28 09:59:59;;;;;;;5.73;5.30;;;23.90;73.90;;;;;;5073384;28;20407;-70
2023/05/28 10:02:36;;;;;;;5.37;4.80;;;24.00;77.00;;;;;;5074384;28;20468;-70
2023/05/28 10:05:06;;;;;;;6.20;5.70;;;24.00;72.50;;;;;;5073204;28;20407;-70
2023/05/28 10:07:34;;;;;;;5.53;5.13;;;24.10;72.70;;;;;;5074075;28;20399;-70
2023/05/28 10:10:01;;;;;;;5.40;4.90;;;24.10;74.00;;;;;;5073302;28;20493;-70
2023/05/28 10:12:30;;;;;;;5.60;5.13;;;24.20;75.60;;;;;;5072951;28;20430;-70
2023/05/28 10:14:56;;;;;;;5.87;5.03;;;24.10;70.70;;;;;;5071606;28;20423;-70
2023/05/28 10:17:22;;;;;;;5.07;4.50;;;23.80;66.20;;;;;;5073774;28;20875;-71
2023/05/28 10:19:49;;;;;;;5.17;4.70;;;23.90;67.60;;;;;;5073736;28;20402;-70
2023/05/28 10:22:16;;;;;;;5.47;4.97;;;23.90;66.60;;;;;;5073107;28;20399;-71
2023/05/28 10:24:43;;;;;;;4.97;4.67;;;23.80;70.60;;;;;;5072641;28;20473;-70
2023/05/28 10:27:15;;;;;;;5.00;4.50;;;24.00;70.70;;;;;;5071503;28;20423;-70
2023/05/28 10:29:42;;;;;;;6.50;4.83;;;24.20;74.10;;;;;;5073519;28;20452;-71
2023/05/28 10:32:08;;;;;;;5.23;4.90;;;24.00;66.70;;;;;;5071667;28;20443;-71
2023/05/28 10:34:36;;;;;;;7.37;5.67;;;24.00;71.80;;;;;;5072461;28;20464;-69
2023/05/28 10:37:06;;;;;;;10.13;6.37;;;24.30;73.70;;;;;;5081149;28;20430;-69
2023/05/28 10:39:45;;;;;;;129.87;99.00;;;24.40;73.30;;;;;;5091171;28;20472;-70
2023/05/28 10:42:20;;;;;;;194.73;166.83;;;24.60;75.50;;;;;;5086403;28;20431;-69
2023/05/28 10:45:06;;;;;;;7.70;6.90;;;24.80;69.10;;;;;;5082732;28;20493;-70
2023/05/28 10:47:33;;;;;;;5.70;5.30;;;24.90;67.10;;;;;;5072716;28;20427;-71
2023/05/28 10:50:15;;;;;;;5.77;5.30;;;24.90;67.40;;;;;;5081499;28;20460;-70
2023/05/28 10:52:41;;;;;;;5.40;4.90;;;24.90;67.70;;;;;;5064375;28;20429;-70
2023/05/28 10:55:12;;;;;;;5.40;5.00;;;24.70;61.80;;;;;;5087541;28;20434;-70
2023/05/28 10:57:48;;;;;;;4.97;4.47;;;24.70;65.40;;;;;;5087313;28;20432;-71
2023/05/28 11:00:24;;;;;;;5.10;4.70;;;24.80;67.80;;;;;;5085440;28;20587;-70
2023/05/28 11:02:54;;;;;;;7.27;5.67;;;24.90;69.40;;;;;;5089361;28;20515;-70
2023/05/28 11:05:26;;;;;;;6.80;6.13;;;24.90;64.80;;;;;;5093130;28;20411;-71
2023/05/28 11:07:55;;;;;;;5.00;4.60;;;24.90;69.10;;;;;;5084956;28;20461;-70
2023/05/28 11:10:21;;;;;;;5.33;4.83;;;25.00;64.70;;;;;;5082997;28;20428;-72
2023/05/28 11:12:49;;;;;;;5.13;4.63;;;25.10;65.10;;;;;;5069830;28;20824;-72
2023/05/28 11:15:16;;;;;;;4.70;4.40;;;25.10;62.90;;;;;;5070789;28;20442;-69
2023/05/28 11:17:43;;;;;;;7.20;6.50;;;25.10;63.60;;;;;;5072804;28;20403;-70
2023/05/28 11:20:16;;;;;;;5.67;5.20;;;25.30;70.70;;;;;;5071005;28;20407;-70
2023/05/28 11:22:42;;;;;;;5.37;4.97;;;25.40;69.50;;;;;;5072702;28;20410;-68
2023/05/28 11:25:09;;;;;;;5.93;5.43;;;25.50;66.30;;;;;;5072148;28;20407;-72
2023/05/28 11:27:37;;;;;;;4.67;4.37;;;25.60;62.60;;;;;;5067799;28;20185;-70
2023/05/28 11:30:24;;;;;;;5.10;4.80;;;25.60;64.60;;;;;;5090990;28;20518;-71
2023/05/28 11:32:50;;;;;;;6.40;4.83;;;25.60;62.70;;;;;;5085554;28;20425;-71
2023/05/28 11:35:17;;;;;;;6.47;5.03;;;25.60;62.00;;;;;;5089853;28;20415;-71
2023/05/28 11:37:44;;;;;;;5.13;4.73;;;25.60;59.80;;;;;;5074383;28;20562;-70
2023/05/28 11:40:12;;;;;;;4.80;4.40;;;25.60;60.90;;;;;;5071220;28;20496;-71
2023/05/28 11:42:41;;;;;;;5.60;5.10;;;25.70;64.30;;;;;;5098264;28;20787;-71
2023/05/28 11:45:08;;;;;;;58.13;49.07;;;25.80;64.20;;;;;;5059233;28;20423;-71
2023/05/28 11:47:35;;;;;;;8.70;7.90;;;25.80;60.20;;;;;;5059172;28;20492;-70
2023/05/28 11:50:08;;;;;;;5.27;4.97;;;25.30;61.10;;;;;;5058794;28;20436;-71
2023/05/28 11:52:34;;;;;;;5.23;4.93;;;25.10;57.50;;;;;;5078895;28;20422;-70
2023/05/28 11:55:03;;;;;;;5.43;4.93;;;24.80;57.50;;;;;;5078316;28;20411;-71
2023/05/28 11:57:34;;;;;;;5.70;5.03;;;24.90;60.00;;;;;;5078580;28;20883;-70
2023/05/28 12:00:08;;;;;;;7.03;6.43;;;25.00;59.50;;;;;;5078002;28;20798;-71
2023/05/28 12:02:34;;;;;;;7.07;6.37;;;25.10;63.10;;;;;;5078938;28;20391;-70
2023/05/28 12:05:01;;;;;;;4.67;4.27;;;25.40;64.40;;;;;;5076615;28;20552;-71
2023/05/28 12:07:35;;;;;;;6.83;5.60;;;25.40;59.90;;;;;;5076668;28;20512;-71
2023/05/28 12:10:14;;;;;;;6.40;4.00;;;25.50;63.00;;;;;;5080369;28;20418;-71
2023/05/28 12:12:45;;;;;;;5.27;4.87;;;25.40;59.00;;;;;;5077669;28;20521;-70
2023/05/28 12:15:11;;;;;;;5.10;4.80;;;25.10;57.30;;;;;;5110811;28;20407;-70
2023/05/28 12:17:38;;;;;;;6.13;5.70;;;24.70;59.00;;;;;;5078887;28;20406;-70
2023/05/28 12:20:17;;;;;;;6.33;5.57;;;24.80;60.70;;;;;;5078226;28;20924;-71
2023/05/28 12:22:43;;;;;;;5.50;5.00;;;24.90;59.30;;;;;;5078857;28;20391;-73
2023/05/28 12:25:10;;;;;;;7.00;5.93;;;25.00;59.00;;;;;;5078136;28;20887;-70
2023/05/28 12:27:37;;;;;;;49.00;38.13;;;24.80;60.40;;;;;;5078431;28;20891;-71
2023/05/28 12:30:04;;;;;;;38.33;34.17;;;24.70;56.70;;;;;;5076943;28;20408;-71
2023/05/28 12:32:30;;;;;;;13.07;11.83;;;24.60;56.70;;;;;;5078738;28;20400;-71
2023/05/28 12:34:58;;;;;;;9.47;8.50;;;24.50;55.50;;;;;;5078577;28;20421;-72
2023/05/28 12:37:24;;;;;;;5.20;4.90;;;24.50;56.30;;;;;;5077072;28;20609;-75
2023/05/28 12:39:51;;;;;;;5.17;4.87;;;24.40;56.90;;;;;;5078621;28;20426;-71
2023/05/28 12:42:17;;;;;;;7.80;7.23;;;24.50;58.60;;;;;;5078047;28;20173;-71
2023/05/28 12:44:43;;;;;;;7.63;7.03;;;24.50;59.30;;;;;;5078550;28;20458;-71